Time;durP1;ratioP1;P1;durP2;ratioP2;P2;SDS_P1;SDS_P2;PMS_P1;PMS_P2;Temp;Humidity;BMP_temperature;BMP_pressure;BME280_temperature;BME280_humidity;BME280_pressure;Samples;Min_cycle;Max_cycle;Signal;HPM_P1;HPM_P2
2021/10/19 00:00:41;;;;;;;61.23;16.77;;;;;;;8.69;98.16;97135.94;5039919;28;20201;-71
2021/10/19 00:03:09;;;;;;;70.90;16.47;;;;;;;8.43;98.82;97128.81;5040321;28;20220;-70
2021/10/19 00:05:36;;;;;;;58.97;17.43;;;;;;;8.43;98.68;97138.50;5037813;28;21069;-70
2021/10/19 00:08:02;;;;;;;57.10;17.60;;;;;;;8.61;98.33;97138.44;5039287;28;20204;-71
2021/10/19 00:10:29;;;;;;;47.10;17.67;;;;;;;8.65;98.91;97139.78;5039556;28;20232;-71
2021/10/19 00:12:57;;;;;;;65.00;18.83;;;;;;;8.89;98.42;97132.25;5038517;28;20201;-71
2021/10/19 00:15:23;;;;;;;85.63;18.20;;;;;;;8.60;98.82;97131.53;5038762;28;20236;-71
2021/10/19 00:17:50;;;;;;;52.20;18.40;;;;;;;8.71;98.60;97112.13;5039352;28;20208;-71
2021/10/19 00:20:17;;;;;;;54.67;18.27;;;;;;;8.94;99.19;97113.41;5039022;28;20284;-71
2021/10/19 00:22:44;;;;;;;40.73;17.23;;;;;;;8.81;99.18;97110.31;5038362;28;20200;-70
2021/10/19 00:25:14;;;;;;;67.27;18.20;;;;;;;8.92;98.86;97116.16;5038962;28;20599;-71
2021/10/19 00:27:42;;;;;;;42.87;18.60;;;;;;;8.92;99.39;97105.66;5038296;28;20201;-71
2021/10/19 00:30:10;;;;;;;41.13;17.10;;;;;;;9.07;99.08;97101.56;5038963;28;20247;-71
2021/10/19 00:32:37;;;;;;;44.80;17.77;;;;;;;8.97;97.95;97108.69;5039186;28;20205;-71
2021/10/19 00:35:05;;;;;;;43.33;17.47;;;;;;;9.01;98.07;97104.78;5038889;28;20236;-71
2021/10/19 00:37:31;;;;;;;42.57;17.87;;;;;;;8.97;97.28;97108.69;5037574;28;20212;-71
2021/10/19 00:39:58;;;;;;;41.87;16.53;;;;;;;8.92;97.85;97108.28;5038387;28;20201;-71
2021/10/19 00:42:24;;;;;;;41.30;16.73;;;;;;;8.90;97.18;97106.81;5038895;28;20208;-71
2021/10/19 00:44:51;;;;;;;53.83;16.47;;;;;;;8.76;97.45;97102.84;5036696;28;20236;-71
2021/10/19 00:47:21;;;;;;;40.57;16.50;;;;;;;8.87;98.27;97102.66;5037851;28;20205;-71
2021/10/19 00:49:48;;;;;;;40.07;16.30;;;;;;;8.74;97.67;97102.16;5038074;28;20217;-71
2021/10/19 00:52:16;;;;;;;37.67;16.23;;;;;;;8.92;98.25;97110.91;5038478;28;20204;-71
2021/10/19 00:54:43;;;;;;;126.53;17.13;;;;;;;8.53;97.73;97109.44;5038375;28;20205;-71
2021/10/19 00:57:10;;;;;;;46.37;16.27;;;;;;;8.75;98.17;97103.00;5037815;28;20201;-71
2021/10/19 00:59:42;;;;;;;43.83;16.30;;;;;;;8.86;98.01;97103.63;5038048;28;21147;-71
2021/10/19 01:02:09;;;;;;;48.83;15.30;;;;;;;8.43;98.77;97102.56;5037758;28;20728;-71
2021/10/19 01:04:37;;;;;;;38.87;14.53;;;;;;;8.69;97.76;97098.31;5038488;28;21085;-71
2021/10/19 01:07:04;;;;;;;55.43;15.87;;;;;;;8.30;98.63;97096.78;5037242;28;20201;-71
2021/10/19 01:09:31;;;;;;;36.57;14.03;;;;;;;8.20;98.21;97092.53;5037995;28;20224;-71
2021/10/19 01:11:57;;;;;;;28.63;14.23;;;;;;;8.34;98.94;97086.81;5038018;28;20210;-71
2021/10/19 01:14:24;;;;;;;35.73;15.00;;;;;;;8.17;98.89;97096.28;5039046;28;20208;-71
2021/10/19 01:16:50;;;;;;;44.83;14.50;;;;;;;8.03;98.70;97101.09;5036802;28;20221;-71
2021/10/19 01:19:21;;;;;;;29.70;14.57;;;;;;;8.37;98.49;97105.75;5037384;28;20264;-71
2021/10/19 01:21:52;;;;;;;41.87;14.67;;;;;;;8.25;98.75;97106.03;5038024;28;20335;-71
2021/10/19 01:24:18;;;;;;;47.27;15.00;;;;;;;8.12;97.82;97108.13;5037306;28;20216;-70
2021/10/19 01:26:45;;;;;;;41.57;14.53;;;;;;;7.82;98.94;97123.22;5036890;28;20224;-71
2021/10/19 01:29:12;;;;;;;34.93;14.63;;;;;;;7.88;99.19;97116.44;5037900;28;20210;-71
2021/10/19 01:31:39;;;;;;;31.50;14.97;;;;;;;8.09;98.42;97106.59;5037637;28;20209;-71
2021/10/19 01:34:05;;;;;;;30.93;16.00;;;;;;;8.15;98.40;97097.38;5037441;28;20197;-71
2021/10/19 01:36:32;;;;;;;33.50;16.03;;;;;;;8.16;97.83;97099.03;5036750;28;20228;-71
2021/10/19 01:38:59;;;;;;;34.30;16.23;;;;;;;8.50;97.29;97088.72;5037581;28;20205;-71
2021/10/19 01:41:26;;;;;;;29.87;15.90;;;;;;;8.23;97.01;97079.13;5037010;28;20220;-71
2021/10/19 01:43:54;;;;;;;36.40;15.93;;;;;;;8.26;96.03;97097.19;5038011;28;20197;-71
2021/10/19 01:46:21;;;;;;;29.17;14.63;;;;;;;8.27;96.14;97101.50;5034542;28;20214;-71
2021/10/19 01:48:47;;;;;;;29.53;14.40;;;;;;;8.17;97.01;97103.31;5036808;28;20205;-71
2021/10/19 01:51:14;;;;;;;26.43;14.00;;;;;;;8.26;95.98;97097.19;5037391;28;20225;-71
2021/10/19 01:53:41;;;;;;;30.10;14.73;;;;;;;8.27;96.46;97101.50;5037499;28;21605;-71
2021/10/19 01:56:10;;;;;;;33.43;14.80;;;;;;;8.45;96.24;97108.47;5036442;28;20217;-71
2021/10/19 01:58:37;;;;;;;27.53;14.80;;;;;;;8.32;96.01;97096.66;5037283;28;20213;-70
2021/10/19 02:01:04;;;;;;;37.97;17.10;;;;;;;8.27;97.01;97081.31;5037265;28;20197;-71
2021/10/19 02:03:31;;;;;;;50.83;16.17;;;;;;;8.28;95.96;97090.03;5036850;28;20197;-71
2021/10/19 02:05:57;;;;;;;38.37;15.80;;;;;;;8.35;96.09;97088.47;5036348;28;20228;-71
2021/10/19 02:08:25;;;;;;;33.27;15.97;;;;;;;8.69;96.26;97079.91;5037223;28;20197;-71
2021/10/19 02:10:52;;;;;;;27.17;14.80;;;;;;;8.59;95.22;97090.47;5034044;28;20221;-71
2021/10/19 02:13:20;;;;;;;35.70;17.23;;;;;;;8.73;94.69;97081.28;5037148;28;20208;-71
2021/10/19 02:15:46;;;;;;;32.33;17.37;;;;;;;8.37;94.95;97084.72;5036814;28;21183;-71
2021/10/19 02:18:13;;;;;;;34.77;17.00;;;;;;;8.44;94.96;97080.59;5035966;28;20557;-71
2021/10/19 02:20:40;;;;;;;55.40;16.17;;;;;;;8.41;95.12;97087.91;5036511;28;20204;-71
2021/10/19 02:23:07;;;;;;;36.20;15.77;;;;;;;8.32;95.36;97086.13;5037773;28;20205;-71
2021/10/19 02:25:34;;;;;;;30.40;14.60;;;;;;;8.30;95.31;97090.69;5035819;28;20220;-70
2021/10/19 02:28:00;;;;;;;31.73;14.90;;;;;;;8.23;95.00;97079.13;5036253;28;21046;-71
2021/10/19 02:30:28;;;;;;;50.20;14.57;;;;;;;8.35;95.61;97083.22;5036833;28;20244;-70
2021/10/19 02:32:56;;;;;;;30.57;15.00;;;;;;;8.31;95.61;97071.34;5037052;28;20573;-71
2021/10/19 02:35:23;;;;;;;31.67;13.40;;;;;;;8.16;95.10;97063.13;5035969;28;20225;-71
2021/10/19 02:37:50;;;;;;;32.67;13.17;;;;;;;7.99;95.76;97052.47;5036027;28;20201;-71
2021/10/19 02:40:18;;;;;;;24.37;13.27;;;;;;;7.86;95.97;97044.09;5036713;28;20296;-71
2021/10/19 02:42:46;;;;;;;23.73;12.63;;;;;;;8.07;95.60;97036.84;5036447;28;20200;-71
2021/10/19 02:45:13;;;;;;;31.83;15.00;;;;;;;8.04;94.57;97045.00;5033747;28;20228;-71
2021/10/19 02:47:41;;;;;;;24.20;13.43;;;;;;;8.03;94.09;97038.09;5035307;28;20299;-71
2021/10/19 02:50:09;;;;;;;24.43;12.90;;;;;;;8.01;93.87;97037.44;5036434;28;20229;-71
2021/10/19 02:52:36;;;;;;;22.23;12.53;;;;;;;7.93;93.11;97034.69;5036422;28;20205;-71
2021/10/19 02:55:02;;;;;;;22.97;14.40;;;;;;;7.93;93.64;97039.94;5036557;28;21090;-71
2021/10/19 02:57:29;;;;;;;21.93;12.73;;;;;;;7.86;92.96;97031.78;5035652;28;20204;-71
2021/10/19 02:59:56;;;;;;;23.80;12.83;;;;;;;7.92;93.11;97022.53;5036258;28;20209;-72
2021/10/19 03:02:23;;;;;;;21.63;12.47;;;;;;;7.80;92.67;97018.41;5036368;28;20251;-71
2021/10/19 03:04:51;;;;;;;20.60;12.00;;;;;;;8.21;92.00;97018.03;5036268;28;20232;-71
2021/10/19 03:07:17;;;;;;;22.83;12.57;;;;;;;7.78;92.25;97009.00;5035541;28;20200;-71
2021/10/19 03:09:44;;;;;;;21.63;12.10;;;;;;;7.78;92.83;97020.34;5035759;28;20208;-71
2021/10/19 03:12:10;;;;;;;24.37;12.43;;;;;;;7.80;93.45;97023.66;5036902;28;20204;-72
2021/10/19 03:14:37;;;;;;;22.17;11.50;;;;;;;7.51;96.00;97028.13;5036009;28;20213;-71
2021/10/19 03:17:03;;;;;;;22.40;12.47;;;;;;;7.85;95.21;97024.06;5035581;28;20197;-71
2021/10/19 03:19:30;;;;;;;26.33;13.07;;;;;;;8.01;94.29;97016.44;5036185;28;20208;-71
2021/10/19 03:21:58;;;;;;;26.23;13.27;;;;;;;8.21;94.43;97031.16;5036152;28;20204;-71
2021/10/19 03:24:24;;;;;;;26.67;13.67;;;;;;;7.67;98.59;97049.34;5036188;28;20201;-71
2021/10/19 03:26:51;;;;;;;29.33;13.67;;;;;;;7.61;97.43;97057.78;5035961;28;20600;-71
2021/10/19 03:29:17;;;;;;;26.03;14.03;;;;;;;7.27;97.14;97067.03;5035838;28;20209;-71
2021/10/19 03:31:44;;;;;;;24.63;13.53;;;;;;;7.49;96.71;97064.13;5039328;28;20327;-71
2021/10/19 03:34:10;;;;;;;27.10;14.30;;;;;;;7.56;95.57;97070.50;5040993;28;20549;-71
2021/10/19 03:36:37;;;;;;;27.93;15.83;;;;;;;7.66;95.12;97073.09;5038808;28;20233;-71
2021/10/19 03:39:05;;;;;;;26.53;15.83;;;;;;;8.10;94.88;97073.31;5039396;28;20201;-71
2021/10/19 03:41:31;;;;;;;26.53;15.07;;;;;;;7.90;94.48;97077.78;5040048;28;20201;-71
2021/10/19 03:43:58;;;;;;;24.80;14.10;;;;;;;7.92;93.50;97061.91;5040527;28;20216;-71
2021/10/19 03:46:24;;;;;;;26.07;13.00;;;;;;;7.73;94.23;97054.03;5035056;28;20231;-72
2021/10/19 03:48:51;;;;;;;24.93;13.37;;;;;;;7.92;93.82;97059.28;5039509;28;20216;-71
2021/10/19 03:51:17;;;;;;;26.80;13.30;;;;;;;8.05;93.38;97065.03;5039762;28;20225;-71
2021/10/19 03:53:44;;;;;;;23.67;12.37;;;;;;;7.96;94.14;97076.38;5040271;28;20198;-71
2021/10/19 03:56:11;;;;;;;24.17;12.33;;;;;;;8.22;93.04;97065.19;5038898;28;20225;-71
2021/10/19 03:58:38;;;;;;;23.13;12.50;;;;;;;8.05;94.05;97065.03;5039036;28;20252;-71
2021/10/19 04:01:04;;;;;;;22.73;12.37;;;;;;;8.20;93.24;97066.28;5039249;28;20201;-71
2021/10/19 04:03:31;;;;;;;27.37;13.23;;;;;;;8.02;94.52;97060.09;5039072;28;20197;-71
2021/10/19 04:05:57;;;;;;;28.33;14.47;;;;;;;8.11;95.10;97054.81;5038800;28;20228;-71
2021/10/19 04:08:24;;;;;;;26.87;13.40;;;;;;;8.25;94.42;97066.66;5039330;28;20201;-71
2021/10/19 04:10:50;;;;;;;29.53;14.83;;;;;;;8.30;94.35;97053.94;5039217;28;20232;-71
2021/10/19 04:13:18;;;;;;;26.87;13.80;;;;;;;8.60;94.55;97057.13;5038811;28;21400;-71
2021/10/19 04:15:45;;;;;;;30.07;15.57;;;;;;;8.41;95.14;97051.97;5038187;28;20243;-71
2021/10/19 04:18:11;;;;;;;27.80;14.73;;;;;;;8.51;95.29;97053.59;5039325;28;20213;-71
2021/10/19 04:20:38;;;;;;;31.37;15.73;;;;;;;8.53;95.62;97051.63;5038761;28;20700;-71
2021/10/19 04:23:04;;;;;;;36.47;16.07;;;;;;;8.59;95.75;97051.06;5039375;28;20201;-72
2021/10/19 04:25:31;;;;;;;33.20;16.60;;;;;;;8.57;95.75;97055.63;5038239;28;20232;-71
2021/10/19 04:27:57;;;;;;;34.80;16.67;;;;;;;8.65;96.00;97045.22;5038638;28;20201;-71
2021/10/19 04:30:25;;;;;;;39.17;16.70;;;;;;;8.90;96.36;97051.59;5038676;28;20232;-71
2021/10/19 04:32:51;;;;;;;37.93;18.20;;;;;;;8.52;97.21;97049.97;5038215;28;20209;-71
2021/10/19 04:35:18;;;;;;;37.83;17.47;;;;;;;8.69;97.25;97046.59;5038151;28;20233;-71
2021/10/19 04:37:44;;;;;;;41.40;18.13;;;;;;;8.75;96.10;97047.81;5038444;28;20576;-71
2021/10/19 04:40:12;;;;;;;40.57;18.70;;;;;;;8.81;97.76;97053.31;5039195;28;20205;-71
2021/10/19 04:42:39;;;;;;;37.50;17.70;;;;;;;8.50;98.29;97070.31;5037621;28;20229;-72
2021/10/19 04:45:07;;;;;;;40.63;18.97;;;;;;;8.70;98.42;97048.22;5035803;28;20227;-71
2021/10/19 04:47:35;;;;;;;40.60;19.13;;;;;;;8.98;97.54;97047.25;5038767;28;20208;-71
2021/10/19 04:50:02;;;;;;;41.83;19.57;;;;;;;8.76;97.41;97057.34;5039043;28;20205;-71
2021/10/19 04:52:28;;;;;;;43.83;20.73;;;;;;;8.94;97.02;97058.22;5037974;28;20757;-72
2021/10/19 04:54:55;;;;;;;43.43;19.20;;;;;;;8.99;97.33;97058.59;5038789;28;20225;-71
2021/10/19 04:57:21;;;;;;;46.17;19.83;;;;;;;9.09;97.19;97054.94;5037882;28;20670;-71
2021/10/19 04:59:48;;;;;;;56.67;20.57;;;;;;;8.88;97.71;97051.72;5038253;28;20205;-71
2021/10/19 05:02:15;;;;;;;50.20;20.13;;;;;;;9.09;97.38;97055.75;5038686;28;20196;-71
2021/10/19 05:04:43;;;;;;;42.57;17.67;;;;;;;9.06;98.21;97063.09;5038576;28;20567;-71
2021/10/19 05:07:09;;;;;;;37.30;16.90;;;;;;;8.96;97.72;97054.47;5037212;28;20232;-72
2021/10/19 05:09:36;;;;;;;43.90;18.30;;;;;;;9.00;97.03;97050.56;5038497;28;20208;-71
2021/10/19 05:12:02;;;;;;;34.13;15.77;;;;;;;9.06;96.66;97042.06;5038248;28;20217;-71
2021/10/19 05:14:29;;;;;;;32.57;14.93;;;;;;;8.92;96.80;97037.31;5037939;28;21019;-72
2021/10/19 05:16:55;;;;;;;26.10;13.90;;;;;;;8.91;96.87;97042.72;5037135;28;21019;-72
2021/10/19 05:19:22;;;;;;;27.33;14.23;;;;;;;9.07;96.24;97049.00;5038119;28;20572;-71
2021/10/19 05:21:50;;;;;;;24.50;13.47;;;;;;;9.50;95.56;97054.38;5038185;28;20539;-71
2021/10/19 05:24:16;;;;;;;30.30;14.63;;;;;;;9.30;94.99;97058.09;5037915;28;21168;-71
2021/10/19 05:26:43;;;;;;;30.30;14.83;;;;;;;9.23;95.69;97057.06;5036719;28;20310;-71
2021/10/19 05:29:09;;;;;;;27.43;14.10;;;;;;;9.07;95.69;97045.53;5038101;28;20251;-72
2021/10/19 05:31:36;;;;;;;36.17;13.83;;;;;;;9.02;95.48;97034.66;5038044;28;20225;-71
2021/10/19 05:34:02;;;;;;;31.13;14.23;;;;;;;9.25;95.32;97041.94;5038069;28;20205;-71
2021/10/19 05:36:29;;;;;;;30.40;14.47;;;;;;;9.15;96.18;97043.81;5036933;28;20260;-71
2021/10/19 05:38:56;;;;;;;32.10;14.10;;;;;;;9.48;95.71;97045.78;5037963;28;20251;-71
2021/10/19 05:41:23;;;;;;;33.23;14.27;;;;;;;9.00;96.11;97040.06;5037267;28;20201;-72
2021/10/19 05:43:49;;;;;;;32.53;14.20;;;;;;;9.03;96.11;97041.56;5037813;28;20201;-70
2021/10/19 05:46:16;;;;;;;28.23;14.20;;;;;;;9.19;95.79;97039.94;5034286;28;20216;-70
2021/10/19 05:48:43;;;;;;;36.47;16.03;;;;;;;9.21;95.79;97037.97;5037340;28;20654;-70
2021/10/19 05:51:09;;;;;;;34.53;15.43;;;;;;;9.29;95.42;97032.78;5037716;28;20713;-70
2021/10/19 05:53:36;;;;;;;37.23;16.43;;;;;;;9.30;95.76;97027.38;5036572;28;20201;-70
2021/10/19 05:56:04;;;;;;;31.13;15.73;;;;;;;9.53;95.75;97033.00;5036466;28;20732;-70
2021/10/19 05:58:30;;;;;;;39.23;14.37;;;;;;;9.27;95.04;97027.66;5037487;28;20216;-70
2021/10/19 06:00:57;;;;;;;31.23;14.70;;;;;;;9.24;95.67;97033.25;5037976;28;20235;-70
2021/10/19 06:03:23;;;;;;;46.60;17.30;;;;;;;9.24;95.72;97027.97;5038141;28;20696;-70
2021/10/19 06:05:49;;;;;;;38.60;16.93;;;;;;;8.98;96.12;97034.09;5036390;28;20592;-70
2021/10/19 06:08:16;;;;;;;39.10;17.17;;;;;;;9.17;96.11;97036.63;5036866;28;20201;-70
2021/10/19 06:10:42;;;;;;;46.47;19.27;;;;;;;9.35;95.53;97032.19;5037566;28;20205;-70
2021/10/19 06:13:10;;;;;;;43.87;19.13;;;;;;;9.70;95.47;97031.19;5037316;28;20205;-70
2021/10/19 06:15:37;;;;;;;43.27;19.00;;;;;;;9.58;95.73;97036.00;5035974;28;20236;-70
2021/10/19 06:18:04;;;;;;;42.10;17.53;;;;;;;9.43;95.87;97040.16;5037112;28;20197;-70
2021/10/19 06:20:30;;;;;;;38.17;16.17;;;;;;;9.61;95.03;97040.97;5037311;28;20641;-70
2021/10/19 06:22:57;;;;;;;36.37;16.07;;;;;;;9.63;95.78;97039.84;5036510;28;20204;-70
2021/10/19 06:25:23;;;;;;;28.73;13.83;;;;;;;9.51;95.79;97045.47;5036948;28;20635;-70
2021/10/19 06:27:50;;;;;;;29.40;13.37;;;;;;;9.63;95.62;97060.06;5036975;28;20220;-70
2021/10/19 06:30:17;;;;;;;27.37;13.73;;;;;;;9.97;95.70;97061.88;5036549;28;20236;-70
2021/10/19 06:32:44;;;;;;;29.63;13.27;;;;;;;9.75;95.92;97060.50;5036515;28;20221;-70
2021/10/19 06:35:10;;;;;;;27.73;12.53;;;;;;;9.70;95.29;97056.69;5037821;28;20256;-70
2021/10/19 06:37:37;;;;;;;27.60;12.30;;;;;;;9.91;94.85;97065.88;5035912;28;20624;-70
2021/10/19 06:40:05;;;;;;;22.93;10.57;;;;;;;9.82;94.89;97064.16;5036550;28;20201;-70
2021/10/19 06:42:32;;;;;;;21.73;10.93;;;;;;;9.77;95.47;97066.44;5037148;28;20204;-70
2021/10/19 06:45:00;;;;;;;21.17;11.03;;;;;;;9.87;95.33;97071.63;5034100;28;20224;-70
2021/10/19 06:47:28;;;;;;;23.70;12.57;;;;;;;10.08;95.20;97070.34;5034212;28;20204;-70
2021/10/19 06:49:55;;;;;;;19.93;10.50;;;;;;;9.75;95.50;97071.03;5036213;28;20212;-70
2021/10/19 06:52:21;;;;;;;26.57;10.57;;;;;;;9.85;95.32;97076.19;5036952;28;20671;-70
2021/10/19 06:54:48;;;;;;;21.10;11.43;;;;;;;9.86;95.15;97078.72;5036404;28;20692;-70
2021/10/19 06:57:14;;;;;;;21.17;10.90;;;;;;;10.06;95.37;97069.66;5035735;28;20201;-70
2021/10/19 06:59:41;;;;;;;32.77;14.97;;;;;;;10.08;95.38;97083.50;5036810;28;20209;-70
2021/10/19 07:02:08;;;;;;;37.00;16.77;;;;;;;10.41;94.18;97090.63;5036526;28;20201;-70
2021/10/19 07:04:37;;;;;;;31.03;14.50;;;;;;;10.61;94.83;97081.53;5036895;28;20205;-70
2021/10/19 07:07:03;;;;;;;31.43;14.97;;;;;;;10.50;95.70;97082.63;5040175;28;20626;-70
2021/10/19 07:09:30;;;;;;;37.47;15.27;;;;;;;10.64;95.07;97082.06;5040388;28;20291;-70
2021/10/19 07:11:57;;;;;;;28.67;15.40;;;;;;;10.78;94.44;97072.72;5040485;28;20220;-70
2021/10/19 07:14:24;;;;;;;26.43;13.57;;;;;;;10.51;95.13;97091.34;5040580;28;20209;-71
2021/10/19 07:16:51;;;;;;;32.30;13.30;;;;;;;10.59;94.11;97089.59;5039440;28;20666;-71
2021/10/19 07:19:17;;;;;;;32.23;14.37;;;;;;;10.70;93.41;97086.69;5040211;28;20582;-70
2021/10/19 07:21:45;;;;;;;32.27;14.37;;;;;;;11.17;92.53;97088.69;5040467;28;20205;-70
2021/10/19 07:24:12;;;;;;;26.00;13.30;;;;;;;10.95;93.05;97091.09;5040161;28;20205;-71
2021/10/19 07:26:39;;;;;;;27.97;13.80;;;;;;;11.08;94.58;97087.00;5039347;28;20236;-71
2021/10/19 07:29:05;;;;;;;29.63;14.93;;;;;;;10.64;95.90;97091.75;5040255;28;20767;-70
2021/10/19 07:31:32;;;;;;;27.77;13.77;;;;;;;10.88;95.96;97090.06;5040032;28;20220;-71
2021/10/19 07:33:58;;;;;;;28.77;13.83;;;;;;;11.01;95.63;97086.00;5040083;28;20251;-70
2021/10/19 07:36:25;;;;;;;26.10;13.67;;;;;;;11.04;95.73;97084.88;5039921;28;20229;-71
2021/10/19 07:38:53;;;;;;;42.73;16.20;;;;;;;11.06;96.49;97094.28;5039966;28;20196;-71
2021/10/19 07:41:20;;;;;;;40.40;18.57;;;;;;;11.14;95.84;97093.50;5039573;28;20631;-70
2021/10/19 07:43:46;;;;;;;37.90;17.43;;;;;;;11.43;95.07;97086.81;5040688;28;20197;-71
2021/10/19 07:46:12;;;;;;;35.07;16.57;;;;;;;11.17;96.67;97091.34;5035988;28;20229;-70
2021/10/19 07:48:39;;;;;;;33.23;15.83;;;;;;;11.36;97.06;97096.34;5040177;28;20681;-70
2021/10/19 07:51:06;;;;;;;39.07;17.30;;;;;;;11.32;95.92;97095.00;5039857;28;20205;-70
2021/10/19 07:53:32;;;;;;;39.33;18.10;;;;;;;11.71;94.08;97096.09;5039455;28;20217;-70
2021/10/19 07:56:00;;;;;;;33.40;16.63;;;;;;;11.94;95.41;97097.13;5039061;28;20236;-70
2021/10/19 07:58:27;;;;;;;46.73;19.33;;;;;;;11.59;95.24;97097.41;5039674;28;20204;-70
2021/10/19 08:00:54;;;;;;;40.50;17.47;;;;;;;11.85;94.84;97090.19;5039655;28;20563;-70
2021/10/19 08:03:21;;;;;;;36.63;17.10;;;;;;;11.88;94.69;97081.94;5039743;28;20189;-70
2021/10/19 08:05:47;;;;;;;38.50;14.87;;;;;;;12.04;93.01;97084.59;5038898;28;20220;-70
2021/10/19 08:08:17;;;;;;;35.33;14.90;;;;;;;12.28;93.36;97075.66;5039543;28;20197;-70
2021/10/19 08:10:45;;;;;;;34.07;15.77;;;;;;;11.91;95.31;97086.91;5039601;28;20292;-70
2021/10/19 08:13:14;;;;;;;49.10;20.67;;;;;;;12.10;93.98;97082.09;5038521;28;20228;-70
2021/10/19 08:15:41;;;;;;;42.87;19.37;;;;;;;12.16;93.51;97092.00;5038127;28;20232;-70
2021/10/19 08:18:08;;;;;;;34.57;15.50;;;;;;;12.18;93.64;97101.44;5038718;28;20197;-70
2021/10/19 08:20:36;;;;;;;30.20;14.17;;;;;;;12.27;93.46;97097.78;5039763;28;20208;-70
2021/10/19 08:23:03;;;;;;;27.53;13.83;;;;;;;12.17;93.01;97112.97;5039269;28;20197;-70
2021/10/19 08:25:30;;;;;;;25.67;13.77;;;;;;;12.50;91.79;97104.03;5038281;28;20217;-70
2021/10/19 08:27:56;;;;;;;29.07;13.70;;;;;;;12.49;92.43;97107.66;5039156;28;20205;-70
2021/10/19 08:30:24;;;;;;;34.17;15.57;;;;;;;12.46;94.60;97118.59;5039216;28;20367;-70
2021/10/19 08:32:52;;;;;;;37.20;16.73;;;;;;;12.63;92.86;97122.84;5038792;28;20221;-71
2021/10/19 08:35:22;;;;;;;37.10;17.10;;;;;;;12.84;92.17;97115.19;5039039;28;20229;-71
2021/10/19 08:37:49;;;;;;;35.07;15.23;;;;;;;12.71;92.68;97112.25;5038596;28;20637;-70
2021/10/19 08:40:16;;;;;;;33.00;16.43;;;;;;;12.69;93.49;97095.75;5037899;28;20209;-70
2021/10/19 08:42:45;;;;;;;34.30;16.60;;;;;;;12.80;94.54;97101.50;5038565;28;20201;-71
2021/10/19 08:45:12;;;;;;;36.47;17.13;;;;;;;12.97;93.40;97094.34;5036132;28;20326;-71
2021/10/19 08:47:41;;;;;;;33.60;17.30;;;;;;;13.10;92.78;97092.81;5038155;28;20236;-71
2021/10/19 08:50:09;;;;;;;33.00;15.53;;;;;;;12.86;92.56;97113.25;5039210;28;20197;-71
2021/10/19 08:52:36;;;;;;;40.20;16.70;;;;;;;13.07;91.66;97094.97;5038723;28;20225;-71
2021/10/19 08:55:03;;;;;;;35.37;16.30;;;;;;;12.91;92.46;97108.28;5037380;28;20225;-71
2021/10/19 08:57:30;;;;;;;31.37;15.33;;;;;;;12.73;92.21;97112.91;5038101;28;20208;-71
2021/10/19 08:59:56;;;;;;;31.33;14.10;;;;;;;12.96;91.57;97130.56;5039257;28;20694;-71
2021/10/19 09:02:36;;;;;;;26.93;14.20;;;;;;;13.15;91.59;97129.34;5038029;28;20197;-72
2021/10/19 09:05:05;;;;;;;29.97;13.77;;;;;;;13.18;92.39;97132.47;5037760;28;20290;-72
2021/10/19 09:07:31;;;;;;;30.17;12.93;;;;;;;12.86;92.65;97137.06;5037517;28;20206;-71
2021/10/19 09:09:58;;;;;;;27.37;14.73;;;;;;;13.10;91.66;97123.75;5038697;28;20212;-72
2021/10/19 09:12:25;;;;;;;28.97;15.07;;;;;;;13.32;91.91;97120.34;5038042;28;20229;-72
2021/10/19 09:14:52;;;;;;;31.17;16.03;;;;;;;13.33;90.40;97127.28;5037976;28;20221;-72
2021/10/19 09:17:18;;;;;;;28.67;14.80;;;;;;;13.24;90.82;97121.22;5037608;28;20202;-72
2021/10/19 09:19:47;;;;;;;30.37;15.43;;;;;;;13.38;92.38;97123.94;5037728;28;20227;-72
2021/10/19 09:22:17;;;;;;;32.13;15.27;;;;;;;13.67;91.31;97110.91;5038165;28;20202;-73
2021/10/19 09:24:44;;;;;;;30.97;15.90;;;;;;;13.83;88.95;97108.13;5037842;28;20197;-72
2021/10/19 09:27:12;;;;;;;31.20;15.23;;;;;;;14.07;89.79;97129.16;5036689;28;20212;-72
2021/10/19 09:29:43;;;;;;;33.03;15.83;;;;;;;14.23;88.60;97134.38;5037820;28;20205;-72
2021/10/19 09:32:12;;;;;;;40.10;17.17;;;;;;;13.73;89.89;97134.00;5037923;28;20702;-72
2021/10/19 09:34:39;;;;;;;39.53;15.50;;;;;;;13.83;88.24;97134.63;5037104;28;20911;-70
2021/10/19 09:37:07;;;;;;;32.50;16.20;;;;;;;14.00;88.71;97141.47;5037299;28;20224;-73
2021/10/19 09:39:39;;;;;;;34.53;17.03;;;;;;;14.08;88.04;97136.97;5037665;28;20205;-71
2021/10/19 09:42:08;;;;;;;32.63;16.33;;;;;;;14.12;89.96;97148.06;5037222;28;20205;-71
2021/10/19 09:44:35;;;;;;;30.33;15.18;;;;;;;13.89;88.24;97147.19;5034767;28;20201;-72
2021/10/19 09:47:03;;;;;;;28.47;14.67;;;;;;;14.25;87.32;97153.59;5036862;28;20212;-72
2021/10/19 09:49:31;;;;;;;28.53;16.13;;;;;;;14.21;88.65;97158.41;5037499;28;20212;-71
2021/10/19 09:52:00;;;;;;;28.03;14.77;;;;;;;14.44;87.67;97153.09;5037090;28;20579;-68
2021/10/19 09:54:31;;;;;;;29.27;14.43;;;;;;;14.53;87.54;97157.34;5037409;28;20204;-71
2021/10/19 09:56:59;;;;;;;29.80;14.95;;;;;;;14.37;87.78;97157.47;5036860;28;20205;-71
2021/10/19 09:59:27;;;;;;;28.40;14.47;;;;;;;14.17;86.64;97154.47;5036874;28;20216;-71
2021/10/19 10:01:53;;;;;;;30.00;14.50;;;;;;;14.09;86.43;97161.63;5037677;28;20228;-71
2021/10/19 10:04:21;;;;;;;19.67;10.00;;;;;;;13.96;86.85;97153.41;5037544;28;20212;-70
2021/10/19 10:06:49;;;;;;;24.85;13.90;;;;;;;14.43;86.08;97151.44;5036218;28;20316;-71
2021/10/19 10:09:16;;;;;;;25.75;13.65;;;;;;;14.60;85.69;97143.19;5036921;28;20201;-71
2021/10/19 10:11:43;;;;;;;28.63;13.82;;;;;;;14.43;85.78;97135.53;5037635;28;20205;-71
2021/10/19 10:14:12;;;;;;;26.35;13.52;;;;;;;14.78;85.40;97127.75;5036519;28;20232;-71
2021/10/19 10:16:44;;;;;;;27.77;13.70;;;;;;;14.84;84.62;97142.94;5036105;28;20252;-71
2021/10/19 10:19:16;;;;;;;27.58;14.55;;;;;;;14.95;85.97;97139.84;5037362;28;20251;-71
2021/10/19 10:21:48;;;;;;;28.42;14.18;;;;;;;14.85;84.94;97142.75;5036863;28;20223;-71
2021/10/19 10:24:15;;;;;;;16.40;9.32;;;;;;;14.43;84.82;97151.44;5036914;28;20197;-71
2021/10/19 10:26:42;;;;;;;28.40;14.57;;;;;;;14.25;85.41;97137.69;5035955;28;21152;-71
2021/10/19 10:29:12;;;;;;;22.90;13.10;;;;;;;14.62;84.86;97135.84;5037224;28;20197;-71
2021/10/19 10:31:47;;;;;;;28.52;15.02;;;;;;;14.90;83.62;97132.41;5039661;28;20579;-70
2021/10/19 10:34:14;;;;;;;28.25;14.63;;;;;;;14.62;83.86;97127.88;5039875;28;20235;-70
2021/10/19 10:36:45;;;;;;;28.92;14.38;;;;;;;14.65;84.25;97125.72;5039569;28;20232;-70
2021/10/19 10:39:13;;;;;;;28.50;14.05;;;;;;;14.57;84.71;97130.25;5038763;28;20655;-70
2021/10/19 10:41:41;;;;;;;26.75;14.23;;;;;;;14.71;84.25;97124.16;5039419;28;20205;-70
2021/10/19 10:44:09;;;;;;;27.58;13.32;;;;;;;14.66;84.17;97127.38;5039671;28;20595;-70
2021/10/19 10:46:37;;;;;;;38.13;17.33;;;;;;;14.66;84.82;97119.41;5036883;28;20224;-70
2021/10/19 10:49:08;;;;;;;39.58;16.95;;;;;;;14.66;84.68;97116.75;5039201;28;20207;-71
2021/10/19 10:51:36;;;;;;;27.60;13.55;;;;;;;14.63;84.59;97117.09;5039676;28;20205;-70
2021/10/19 10:54:03;;;;;;;28.70;14.23;;;;;;;14.66;85.32;97116.75;5039196;28;20228;-71
2021/10/19 10:56:40;;;;;;;25.02;13.52;;;;;;;14.42;85.64;97117.97;5039406;28;20224;-70
2021/10/19 10:59:06;;;;;;;24.95;12.90;;;;;;;14.58;85.75;97123.16;5039154;28;20215;-71
2021/10/19 11:01:33;;;;;;;24.13;12.38;;;;;;;14.52;85.34;97114.06;5039435;28;20231;-70
2021/10/19 11:04:07;;;;;;;29.58;14.25;;;;;;;15.13;85.77;97103.94;5039578;28;20201;-71
2021/10/19 11:06:34;;;;;;;31.60;15.70;;;;;;;14.71;87.12;97109.09;5039914;28;20232;-71
2021/10/19 11:09:05;;;;;;;26.88;14.52;;;;;;;14.93;86.78;97097.56;5040230;28;20208;-71
2021/10/19 11:11:35;;;;;;;27.90;13.70;;;;;;;14.90;85.35;97092.59;5039049;28;20205;-70
2021/10/19 11:14:04;;;;;;;32.50;15.02;;;;;;;15.00;85.93;97103.78;5039260;28;20227;-71
2021/10/19 11:16:32;;;;;;;28.60;13.90;;;;;;;14.86;85.59;97096.63;5038190;28;20241;-70
2021/10/19 11:18:59;;;;;;;26.27;13.10;;;;;;;14.93;85.23;97097.56;5039653;28;20232;-70
2021/10/19 11:21:28;;;;;;;20.48;11.95;;;;;;;15.03;85.83;97095.47;5040048;28;20693;-71